Awesome Weather in Detroit!

Status
Not open for further replies.

N519AT

Ahh! This is how I change this!
KDTW 141959Z 13005KT 3/4SM R03L/4500V5500FT -SN BR BKN008 OVC016 M04/M05 A2966 RMK AO2 TWR VIS 1 P0000
 

Derg

New Arizona, Il Duce/Warlord
Staff member
Actually, the weather's not all that bad. Easy category 1 ILS.
 

N519AT

Ahh! This is how I change this!
And getting better....They have been updating the weather about every 20 minutes or so....KDTW 142022Z VRB06KT 1/4SM R03L/2600V4000FT SN FZFG VV006 M04/M04 A2965 RMK AO2 P0002
 

lilrkt

New Member
Yeah I ended up with about 8 inches on the ground from that here north of Detroit. And I was supposed to work on eights on pylons too, oh darn.
 

TheShortOne

Well-Known Member
we got about 6" of snow here in ann arbor, my fam a little north of detroit (30 mins) got a foot of snow. I just got back from sledding
going skiing this weekend! woohoo!
 

pilot4500

IT Manager/ Former Cirrus Charter Pilot
And getting better....They have been updating the weather about every 20 minutes or so....KDTW 142022Z VRB06KT 1/4SM R03L/2600V4000FT SN FZFG VV006 M04/M04 A2965 RMK AO2 P0002
All I can say to that is UGH!!! I'm glad that I live down here in the south. You can't beat the weather that we have been having in Charlotte lately. :)

KCLT 141852Z 14004KT 10SM FEW250 25/05 A3011 RMK AO2 SLP191 T02500050


KCLT 141722Z 141818 07005KT P6SM FEW250
FM1500 11005KT P6SM FEW250
 
Status
Not open for further replies.
Top